Map

Track Data

SID SEASON NUMBER BASIN SUBBASIN NAME ISO_TIME NATURE LAT LON WMO_WIND WMO_PRES WMO_AGENCY TRACK_TYPE DIST2LAND LANDFALL IFLAG USA_AGENCY USA_ATCF_ID USA_LAT USA_LON USA_RECORD USA_STATUS USA_WIND USA_PRES USA_SSHS USA_R34_NE USA_R34_SE USA_R34_SW USA_R34_NW USA_R50_NE USA_R50_SE USA_R50_SW USA_R50_NW USA_R64_NE USA_R64_SE USA_R64_SW USA_R64_NW USA_POCI USA_ROCI USA_RMW USA_EYE TOKYO_LAT TOKYO_LON TOKYO_GRADE TOKYO_WIND TOKYO_PRES TOKYO_R50_DIR TOKYO_R50_LONG TOKYO_R50_SHORT TOKYO_R30_DIR TOKYO_R30_LONG TOKYO_R30_SHORT TOKYO_LAND CMA_LAT CMA_LON CMA_CAT CMA_WIND CMA_PRES HKO_LAT HKO_LON HKO_CAT HKO_WIND HKO_PRES NEWDELHI_LAT NEWDELHI_LON NEWDELHI_GRADE NEWDELHI_WIND NEWDELHI_PRES NEWDELHI_CI NEWDELHI_DP NEWDELHI_POCI REUNION_LAT REUNION_LON REUNION_TYPE REUNION_WIND REUNION_PRES REUNION_TNUM REUNION_CI REUNION_RMW REUNION_R34_NE REUNION_R34_SE REUNION_R34_SW REUNION_R34_NW REUNION_R50_NE REUNION_R50_SE REUNION_R50_SW REUNION_R50_NW REUNION_R64_NE REUNION_R64_SE REUNION_R64_SW REUNION_R64_NW BOM_LAT BOM_LON BOM_TYPE BOM_WIND BOM_PRES BOM_TNUM BOM_CI BOM_RMW BOM_R34_NE BOM_R34_SE BOM_R34_SW BOM_R34_NW BOM_R50_NE BOM_R50_SE BOM_R50_SW BOM_R50_NW BOM_R64_NE BOM_R64_SE BOM_R64_SW BOM_R64_NW BOM_ROCI BOM_POCI BOM_EYE BOM_POS_METHOD BOM_PRES_METHOD NADI_LAT NADI_LON NADI_CAT NADI_WIND NADI_PRES WELLINGTON_LAT WELLINGTON_LON WELLINGTON_WIND WELLINGTON_PRES DS824_LAT DS824_LON DS824_STAGE DS824_WIND DS824_PRES TD9636_LAT TD9636_LON TD9636_STAGE TD9636_WIND TD9636_PRES TD9635_LAT TD9635_LON TD9635_WIND TD9635_PRES TD9635_ROCI NEUMANN_LAT NEUMANN_LON NEUMANN_CLASS NEUMANN_WIND NEUMANN_PRES MLC_LAT MLC_LON MLC_CLASS MLC_WIND MLC_PRES USA_GUST BOM_GUST BOM_GUST_PER REUNION_GUST REUNION_GUST_PER USA_SEAHGT USA_SEARAD_NE USA_SEARAD_SE USA_SEARAD_SW USA_SEARAD_NW STORM_SPEED STORM_DIR
1947231N23278 1947 55 NA NA NOT_NAMED 1947-08-18 18:00:00 TS 23.3000 -82.0000 30 hurdat_atl main 22 0 O_____________ hurdat_atl AL031947 23.3000 -82.0000 TD 30 -1 7 243
1947231N23278 1947 55 NA NA NOT_NAMED 1947-08-18 21:00:00 TS 23.1302 -82.3602 main 0 0 P_____________ AL031947 23.1302 -82.3602 TD 30 -1 7 245
1947231N23278 1947 55 NA NA NOT_NAMED 1947-08-19 00:00:00 TS 23.0000 -82.7000 30 hurdat_atl main 0 0 O_____________ hurdat_atl AL031947 23.0000 -82.7000 TD 30 -1 6 253
1947231N23278 1947 55 NA NA NOT_NAMED 1947-08-19 03:00:00 TS 22.9474 -83.0075 main 0 0 P_____________ AL031947 22.9474 -83.0075 TD 32 -1 6 270
1947231N23278 1947 55 NA GM NOT_NAMED 1947-08-19 06:00:00 TS 23.0000 -83.3000 35 hurdat_atl main 11 11 O_____________ hurdat_atl AL031947 23.0000 -83.3000 TS 35 0 6 290
1947231N23278 1947 55 NA GM NOT_NAMED 1947-08-19 09:00:00 TS 23.1475 -83.6075 main 30 30 P_____________ AL031947 23.1475 -83.6075 TS 37 0 7 306
1947231N23278 1947 55 NA GM NOT_NAMED 1947-08-19 12:00:00 TS 23.4000 -83.9000 40 hurdat_atl main 70 70 O_____________ hurdat_atl AL031947 23.4000 -83.9000 TS 40 0 8 323
1947231N23278 1947 55 NA GM NOT_NAMED 1947-08-19 15:00:00 TS 23.7797 -84.1198 main 118 118 P_____________ AL031947 23.7797 -84.1198 TS 42 0 8 327
1947231N23278 1947 55 NA GM NOT_NAMED 1947-08-19 18:00:00 TS 24.1000 -84.4000 45 hurdat_atl main 161 161 O_____________ hurdat_atl AL031947 24.1000 -84.4000 TS 45 0 8 298
1947231N23278 1947 55 NA GM NOT_NAMED 1947-08-19 21:00:00 TS 24.1452 -84.8705 main 181 181 P_____________ AL031947 24.1452 -84.8705 TS 45 0 9 270
1947231N23278 1947 55 NA GM NOT_NAMED 1947-08-20 00:00:00 TS 24.1000 -85.4000 45 hurdat_atl main 211 211 O_____________ hurdat_atl AL031947 24.1000 -85.4000 TS 45 0 9 269
1947231N23278 1947 55 NA GM NOT_NAMED 1947-08-20 03:00:00 TS 24.1349 -85.8725 main 248 248 P_____________ AL031947 24.1349 -85.8725 TS 45 0 8 277
1947231N23278 1947 55 NA GM NOT_NAMED 1947-08-20 06:00:00 TS 24.2000 -86.3000 45 hurdat_atl main 286 286 O_____________ hurdat_atl AL031947 24.2000 -86.3000 TS 45 0 8 282
1947231N23278 1947 55 NA GM NOT_NAMED 1947-08-20 09:00:00 TS 24.2925 -86.6949 main 314 313 P_____________ AL031947 24.2925 -86.6949 TS 42 0 7 287
1947231N23278 1947 55 NA GM NOT_NAMED 1947-08-20 12:00:00 TS 24.4000 -87.0000 40 hurdat_atl main 324 324 O_____________ hurdat_atl AL031947 24.4000 -87.0000 TS 40 0 5 292
1947231N23278 1947 55 NA GM NOT_NAMED 1947-08-20 15:00:00 TS 24.4699 -87.1877 main 335 335 P_____________ AL031947 24.4699 -87.1877 TS 40 0 3 306
1947231N23278 1947 55 NA GM NOT_NAMED 1947-08-20 18:00:00 TS 24.6000 -87.3000 40 hurdat_atl main 347 347 O_____________ hurdat_atl AL031947 24.6000 -87.3000 TS 40 0 4 332
1947231N23278 1947 55 NA GM NOT_NAMED 1947-08-20 21:00:00 TS 24.8550 -87.4075 main 381 381 P_____________ AL031947 24.8550 -87.4075 TS 40 0 6 343
1947231N23278 1947 55 NA GM NOT_NAMED 1947-08-21 00:00:00 TS 25.2000 -87.5000 40 hurdat_atl main 414 407 O_____________ hurdat_atl AL031947 25.2000 -87.5000 TS 40 0 8 347
1947231N23278 1947 55 NA GM NOT_NAMED 1947-08-21 03:00:00 TS 25.5850 -87.5926 main 407 362 P_____________ AL031947 25.5850 -87.5926 TS 40 0 8 347
1947231N23278 1947 55 NA GM NOT_NAMED 1947-08-21 06:00:00 TS 26.0000 -87.7000 40 hurdat_atl main 362 317 O_____________ hurdat_atl AL031947 26.0000 -87.7000 TS 40 0 8 345
1947231N23278 1947 55 NA GM NOT_NAMED 1947-08-21 09:00:00 TS 26.3925 -87.8351 main 317 268 P_____________ AL031947 26.3925 -87.8351 TS 40 0 8 341
1947231N23278 1947 55 NA GM NOT_NAMED 1947-08-21 12:00:00 TS 26.8000 -88.0000 40 hurdat_atl main 268 219 O_____________ hurdat_atl AL031947 26.8000 -88.0000 TS 40 0 9 341
1947231N23278 1947 55 NA GM NOT_NAMED 1947-08-21 15:00:00 TS 27.2648 -88.1627 main 209 160 P_____________ AL031947 27.2648 -88.1627 TS 40 0 10 338
1947231N23278 1947 55 NA GM NOT_NAMED 1947-08-21 18:00:00 TS 27.7000 -88.4000 40 hurdat_atl main 160 115 O_____________ hurdat_atl AL031947 27.7000 -88.4000 TS 40 0 10 325
1947231N23278 1947 55 NA GM NOT_NAMED 1947-08-21 21:00:00 TS 28.0452 -88.7848 main 115 78 P_____________ AL031947 28.0452 -88.7848 TS 40 0 9 310
1947231N23278 1947 55 NA GM NOT_NAMED 1947-08-22 00:00:00 TS 28.3000 -89.2000 40 1004 hurdat_atl main 78 67 O_____________ hurdat_atl AL031947 28.3000 -89.2000 TS 40 1004 0 8 303
1947231N23278 1947 55 NA GM NOT_NAMED 1947-08-22 03:00:00 TS 28.4724 -89.5303 main 67 62 P_____________ AL031947 28.4724 -89.5303 TS 40 0 6 300
1947231N23278 1947 55 NA GM NOT_NAMED 1947-08-22 06:00:00 TS 28.6000 -89.8000 40 hurdat_atl main 62 45 O_____________ hurdat_atl AL031947 28.6000 -89.8000 TS 40 0 5 299
1947231N23278 1947 55 NA GM NOT_NAMED 1947-08-22 09:00:00 TS 28.7150 -90.0247 main 45 22 P_____________ AL031947 28.7150 -90.0247 TS 40 0 5 311
1947231N23278 1947 55 NA GM NOT_NAMED 1947-08-22 12:00:00 TS 28.9000 -90.2000 40 hurdat_atl main 22 9 O_____________ hurdat_atl AL031947 28.9000 -90.2000 TS 40 0 5 328
1947231N23278 1947 55 NA GM NOT_NAMED 1947-08-22 14:00:00 TS 29.1000 -90.3000 40 hurdat_atl main 9 0 O_____________ hurdat_atl AL031947 29.1000 -90.3000 L TS 40 0 7 330
1947231N23278 1947 55 NA GM NOT_NAMED 1947-08-22 15:00:00 TS 29.2003 -90.3992 main 9 0 P_____________ AL031947 29.2003 -90.3992 TS 38 0 8 305
1947231N23278 1947 55 NA NA NOT_NAMED 1947-08-22 18:00:00 TS 29.4000 -90.8000 35 hurdat_atl main 0 0 O_____________ hurdat_atl AL031947 29.4000 -90.8000 TS 35 0 6 279
1947231N23278 1947 55 NA NA NOT_NAMED 1947-08-22 21:00:00 TS 29.2916 -91.0803 main 0 0 P_____________ AL031947 29.2916 -91.0803 TS 35 0 6 227
1947231N23278 1947 55 NA GM NOT_NAMED 1947-08-23 00:00:00 TS 29.0000 -91.3000 35 hurdat_atl main 29 29 O_____________ hurdat_atl AL031947 29.0000 -91.3000 TS 35 0 7 212
1947231N23278 1947 55 NA GM NOT_NAMED 1947-08-23 03:00:00 TS 28.7074 -91.4924 main 68 68 P_____________ AL031947 28.7074 -91.4924 TS 37 0 7 210
1947231N23278 1947 55 NA GM NOT_NAMED 1947-08-23 06:00:00 TS 28.4000 -91.7000 40 hurdat_atl main 106 106 O_____________ hurdat_atl AL031947 28.4000 -91.7000 TS 40 0 8 215
1947231N23278 1947 55 NA GM NOT_NAMED 1947-08-23 09:00:00 TS 28.0975 -91.9853 main 150 150 P_____________ AL031947 28.0975 -91.9853 TS 42 0 7 227
1947231N23278 1947 55 NA GM NOT_NAMED 1947-08-23 12:00:00 TS 27.9000 -92.3000 45 hurdat_atl main 178 178 O_____________ hurdat_atl AL031947 27.9000 -92.3000 TS 45 0 6 249
1947231N23278 1947 55 NA GM NOT_NAMED 1947-08-23 15:00:00 TS 27.8899 -92.5998 main 180 174 P_____________ AL031947 27.8899 -92.5998 TS 50 0 5 281
1947231N23278 1947 55 NA GM NOT_NAMED 1947-08-23 18:00:00 TS 28.0000 -92.9000 55 hurdat_atl main 177 170 O_____________ hurdat_atl AL031947 28.0000 -92.9000 TS 55 0 6 294
1947231N23278 1947 55 NA GM NOT_NAMED 1947-08-23 21:00:00 TS 28.1350 -93.2149 main 177 158 P_____________ AL031947 28.1350 -93.2149 TS 57 0 6 300
1947231N23278 1947 55 NA GM NOT_NAMED 1947-08-24 00:00:00 TS 28.3000 -93.5000 60 hurdat_atl main 158 145 O_____________ hurdat_atl AL031947 28.3000 -93.5000 TS 60 0 6 305
1947231N23278 1947 55 NA GM NOT_NAMED 1947-08-24 03:00:00 TS 28.4499 -93.7301 main 145 121 P_____________ AL031947 28.4499 -93.7301 TS 62 0 5 311
1947231N23278 1947 55 NA GM NOT_NAMED 1947-08-24 06:00:00 TS 28.6000 -93.9000 65 hurdat_atl main 121 106 O_____________ hurdat_atl AL031947 28.6000 -93.9000 HU 65 1 4 322
1947231N23278 1947 55 NA GM NOT_NAMED 1947-08-24 09:00:00 TS 28.7574 -94.0001 main 97 82 P_____________ AL031947 28.7574 -94.0001 HU 67 1 3 330
1947231N23278 1947 55 NA GM NOT_NAMED 1947-08-24 12:00:00 TS 28.9000 -94.1000 70 hurdat_atl main 82 62 O_____________ hurdat_atl AL031947 28.9000 -94.1000 HU 70 1 3 317
1947231N23278 1947 55 NA GM NOT_NAMED 1947-08-24 15:00:00 TS 29.0116 -94.2676 main 62 44 P_____________ AL031947 29.0116 -94.2676 HU 70 1 4 300
1947231N23278 1947 55 NA GM NOT_NAMED 1947-08-24 18:00:00 TS 29.1000 -94.5000 70 984 hurdat_atl main 44 14 O_____________ hurdat_atl AL031947 29.1000 -94.5000 HU 70 984 1 5 288
1947231N23278 1947 55 NA GM NOT_NAMED 1947-08-24 21:00:00 TS 29.1659 -94.8165 main 14 11 P_____________ AL031947 29.1659 -94.8165 HU 70 984 1 5 286
1947231N23278 1947 55 NA GM NOT_NAMED 1947-08-24 22:00:00 TS 29.2000 -94.9000 70 984 hurdat_atl main 11 0 O_____________ hurdat_atl AL031947 29.2000 -94.9000 L HU 70 984 1 4 311
1947231N23278 1947 55 NA GM NOT_NAMED 1947-08-25 00:00:00 TS 29.3000 -95.0000 65 hurdat_atl main 0 0 O_____________ hurdat_atl AL031947 29.3000 -95.0000 HU 65 1 5 310
1947231N23278 1947 55 NA NA NOT_NAMED 1947-08-25 03:00:00 TS 29.4436 -95.2268 main 0 0 P_____________ AL031947 29.4436 -95.2268 HU 57 0 5 305
1947231N23278 1947 55 NA NA NOT_NAMED 1947-08-25 06:00:00 TS 29.6000 -95.5000 50 hurdat_atl main 0 0 O_____________ hurdat_atl AL031947 29.6000 -95.5000 TS 50 0 6 307
1947231N23278 1947 55 NA NA NOT_NAMED 1947-08-25 09:00:00 TS 29.7925 -95.7500 main 0 0 P_____________ AL031947 29.7925 -95.7500 TS 42 0 6 313
1947231N23278 1947 55 NA NA NOT_NAMED 1947-08-25 12:00:00 TS 30.0000 -96.0000 35 hurdat_atl main 0 0 O_____________ hurdat_atl AL031947 30.0000 -96.0000 TS 35 0 6 313
1947231N23278 1947 55 NA NA NOT_NAMED 1947-08-25 15:00:00 TS 30.2000 -96.2501 main 0 0 P_____________ AL031947 30.2000 -96.2501 TS 32 -1 6 313
1947231N23278 1947 55 NA NA NOT_NAMED 1947-08-25 18:00:00 TS 30.4000 -96.5000 30 hurdat_atl main 0 0 O_____________ hurdat_atl AL031947 30.4000 -96.5000 TD 30 -1 6 312
1947231N23278 1947 55 NA NA NOT_NAMED 1947-08-25 21:00:00 TS 30.6000 -96.7650 main 0 0 P_____________ AL031947 30.6000 -96.7650 TD 30 -1 6 313
1947231N23278 1947 55 NA NA NOT_NAMED 1947-08-26 00:00:00 TS 30.8000 -97.0000 30 hurdat_atl main 0 0 O_____________ hurdat_atl AL031947 30.8000 -97.0000 TD 30 -1 5 319
1947231N23278 1947 55 NA NA NOT_NAMED 1947-08-26 03:00:00 TS 30.9999 -97.1652 main 0 0 P_____________ AL031947 30.9999 -97.1652 TD 27 -1 5 327
1947231N23278 1947 55 NA NA NOT_NAMED 1947-08-26 06:00:00 TS 31.2000 -97.3000 25 hurdat_atl main 0 0 O_____________ hurdat_atl AL031947 31.2000 -97.3000 TD 25 -1 5 329
1947231N23278 1947 55 NA NA NOT_NAMED 1947-08-26 09:00:00 TS 31.4000 -97.4501 main 0 0 P_____________ AL031947 31.4000 -97.4501 TD 22 -1 5 327
1947231N23278 1947 55 NA NA NOT_NAMED 1947-08-26 12:00:00 TS 31.6000 -97.6000 20 hurdat_atl main 0 0 O_____________ hurdat_atl AL031947 31.6000 -97.6000 TD 20 -1 5 327
1947231N23278 1947 55 NA NA NOT_NAMED 1947-08-26 15:00:00 TS 31.8000 -97.7575 main 0 0 P_____________ AL031947 31.8000 -97.7575 TD 20 -1 5 327
1947231N23278 1947 55 NA NA NOT_NAMED 1947-08-26 18:00:00 TS 32.0000 -97.9000 20 hurdat_atl main 0 0 O_____________ hurdat_atl AL031947 32.0000 -97.9000 TD 20 -1 5 329
1947231N23278 1947 55 NA NA NOT_NAMED 1947-08-26 21:00:00 TS 32.1850 -98.0299 main 0 0 P_____________ AL031947 32.1850 -98.0299 TD 20 -1 4 337
1947231N23278 1947 55 NA NA NOT_NAMED 1947-08-27 00:00:00 TS 32.4000 -98.1000 20 hurdat_atl main 0 0 O_____________ hurdat_atl AL031947 32.4000 -98.1000 TD 20 -1 5 356
1947231N23278 1947 55 NA NA NOT_NAMED 1947-08-27 03:00:00 TS 32.6700 -98.0726 main 0 0 P_____________ AL031947 32.6700 -98.0726 TD 20 -1 6 8
1947231N23278 1947 55 NA NA NOT_NAMED 1947-08-27 06:00:00 TS 33.0000 -98.0000 20 hurdat_atl main 0 0 O_____________ hurdat_atl AL031947 33.0000 -98.0000 TD 20 -1 7 9
1947231N23278 1947 55 NA NA NOT_NAMED 1947-08-27 09:00:00 TS 33.3550 -97.9426 main 0 0 P_____________ AL031947 33.3550 -97.9426 TD 17 -1 8 6
1947231N23278 1947 55 NA NA NOT_NAMED 1947-08-27 12:00:00 TS 33.8000 -97.9000 15 hurdat_atl main 0 0 O_____________ hurdat_atl AL031947 33.8000 -97.9000 TD 15 -1 10 3
1947231N23278 1947 55 NA NA NOT_NAMED 1947-08-27 15:00:00 TS 34.3650 -97.8899 main 0 0 P_____________ AL031947 34.3650 -97.8899 TD 15 -1 12 1
1947231N23278 1947 55 NA NA NOT_NAMED 1947-08-27 18:00:00 TS 35.0000 -97.9000 15 hurdat_atl main 0 O_____________ hurdat_atl AL031947 35.0000 -97.9000 TD 15 -1 13 358

About IBTrACS Database

This database is a web-friendly format of International Best Track Archive for Climate Stewardship (IBTrACS), a global best track data archive curated by NOAA dating back to 1842.

Updated: 2021-10-27